Scranton/Wilkes-Barre, Pennsylvania
Current Conditions -  °F | °C
As of 8:54 AM on Sunday 21 Dec 2014 (Local Time) from KAVP Reporting Station
Overcast Overcast  
Wind Chill: 23°   Ceiling: 2000
Heat Index: 29°   Visibility: 10mi
Dew Point: 20°   Wind: 6mph
Humidity: 69%   Direction: 350°N
Pressure: 30.29"   Gusts: NA
Location:  41.33°N, 75.73°W
Report Text: KAVP 211354Z AUTO 35005KT 10SM OVC020 M02/M07 A3029 RMK AO2 SLP267 T10171067
Loading
Personal Weather Stations






























Interactive Weather Map New forecast layout! Learn more

10-Day Weather Forecast

Advertisements
Track Severe Weather on mobile